createdAt,value
2023-05-14T04:00:29.347Z,1024.00
2023-05-14T04:05:29.286Z,1316.00
2023-05-14T04:10:29.235Z,1656.00
2023-05-14T04:15:36.248Z,2036.00
2023-05-14T04:20:29.134Z,2492.00
2023-05-14T04:25:29.163Z,3688.00
2023-05-14T04:30:28.999Z,4408.00
2023-05-14T04:35:29.000Z,14656.00
2023-05-14T04:40:28.910Z,18112.00
2023-05-14T04:45:28.863Z,21312.00
2023-05-14T04:50:28.803Z,20224.00
2023-05-14T04:55:28.763Z,6136.00
2023-05-14T05:00:28.705Z,6496.00
2023-05-14T05:05:28.629Z,28416.00
2023-05-14T05:10:28.577Z,35392.00
2023-05-14T05:15:28.540Z,45632.00
2023-05-14T05:20:28.594Z,51360.00
2023-05-14T05:25:28.421Z,43104.00
2023-05-14T05:30:28.379Z,47712.00
2023-05-14T05:35:28.386Z,42656.00
2023-05-14T05:40:28.246Z,32928.00
2023-05-14T05:45:28.220Z,23552.00
2023-05-14T05:50:28.140Z,21664.00
2023-05-14T05:55:28.108Z,16160.00
2023-05-14T06:00:28.042Z,22272.00
2023-05-14T06:05:28.051Z,28512.00
2023-05-14T06:10:27.920Z,44160.00
2023-05-14T06:15:27.929Z,46368.00
2023-05-14T06:20:27.830Z,44960.00
2023-05-14T06:25:27.759Z,42688.00
2023-05-14T06:30:27.703Z,43072.00
2023-05-14T06:35:27.668Z,43264.00
2023-05-14T06:40:27.610Z,41184.00
2023-05-14T06:45:27.541Z,40992.00
2023-05-14T06:50:27.533Z,27904.00
2023-05-14T06:55:27.521Z,36928.00
2023-05-14T07:00:27.407Z,29696.00
2023-05-14T07:05:27.330Z,19296.00
2023-05-14T07:10:27.420Z,18144.00
2023-05-14T07:15:27.242Z,19200.00
2023-05-14T07:20:27.336Z,23264.00
2023-05-14T07:25:27.115Z,16608.00
2023-05-14T07:30:27.096Z,14488.00
2023-05-14T07:35:27.046Z,13620.00
2023-05-14T07:40:27.020Z,12840.00
2023-05-14T07:45:26.904Z,12316.00
2023-05-14T07:50:26.905Z,11928.00
2023-05-14T07:55:26.824Z,11540.00
2023-05-14T08:00:26.917Z,10936.00
2023-05-14T08:05:26.695Z,10740.00
2023-05-14T08:10:27.254Z,10564.00
2023-05-14T08:15:27.825Z,9800.00
2023-05-14T08:20:26.764Z,9188.00
2023-05-14T08:25:26.481Z,9052.00
2023-05-14T08:30:26.817Z,9012.00
2023-05-14T08:35:26.396Z,9020.00
2023-05-14T08:40:26.549Z,9196.00
2023-05-14T08:45:26.265Z,8980.00
2023-05-14T08:50:26.480Z,9332.00
2023-05-14T08:55:26.249Z,8152.00
2023-05-14T09:00:26.559Z,8884.00
2023-05-14T09:05:26.051Z,6572.00
2023-05-14T09:10:26.312Z,5708.00
2023-05-14T09:15:25.959Z,6300.00
2023-05-14T09:20:26.438Z,8668.00
2023-05-14T09:25:25.832Z,6192.00
2023-05-14T09:30:26.012Z,8444.00
2023-05-14T09:35:25.750Z,5272.00
2023-05-14T09:40:25.745Z,5760.00
2023-05-14T09:45:25.613Z,8752.00
2023-05-14T09:50:25.893Z,8436.00
2023-05-14T09:55:25.538Z,8352.00
2023-05-14T10:00:25.650Z,7888.00
2023-05-14T10:05:25.459Z,7892.00
2023-05-14T10:10:25.709Z,5212.00
2023-05-14T10:15:32.453Z,5432.00
2023-05-14T10:20:25.598Z,8308.00
2023-05-14T10:25:25.186Z,8568.00
2023-05-14T10:30:25.622Z,8944.00
2023-05-14T10:35:25.085Z,7208.00
2023-05-14T10:40:25.258Z,6328.00
2023-05-14T10:45:24.958Z,5964.00
2023-05-14T10:50:25.179Z,6424.00
2023-05-14T10:55:24.877Z,7096.00
2023-05-14T11:00:24.961Z,9736.00
2023-05-14T11:05:24.753Z,6960.00
2023-05-14T11:10:24.888Z,7216.00
2023-05-14T11:15:24.662Z,7952.00
2023-05-14T11:20:24.913Z,7656.00
2023-05-14T11:25:24.525Z,7164.00
2023-05-14T11:30:24.711Z,7132.00
2023-05-14T11:35:24.446Z,7060.00
2023-05-14T11:40:24.627Z,6860.00
2023-05-14T11:45:24.321Z,8528.00
2023-05-14T11:50:24.410Z,6708.00
2023-05-14T11:55:24.223Z,8188.00
2023-05-14T12:00:24.431Z,8156.00
2023-05-14T12:05:24.101Z,7632.00
2023-05-14T12:10:24.275Z,7472.00
2023-05-14T12:15:23.999Z,6316.00
2023-05-14T12:20:24.239Z,4616.00
2023-05-14T12:25:23.862Z,6648.00
2023-05-14T12:30:23.854Z,6588.00
2023-05-14T12:35:24.224Z,7136.00
2023-05-14T12:40:23.999Z,6996.00
2023-05-14T12:45:23.855Z,7968.00
2023-05-14T12:50:23.808Z,8468.00
2023-05-14T12:55:23.586Z,8736.00
2023-05-14T13:00:23.776Z,6668.00
2023-05-14T13:05:23.608Z,8316.00
2023-05-14T13:10:23.383Z,6576.00
2023-05-14T13:15:23.823Z,6328.00
2023-05-14T13:20:23.273Z,7692.00
2023-05-14T13:25:23.395Z,7548.00
2023-05-14T13:30:23.177Z,8020.00
2023-05-14T13:35:23.352Z,8492.00
2023-05-14T13:40:23.062Z,6492.00
2023-05-14T13:45:23.197Z,6652.00
2023-05-14T13:50:22.964Z,7108.00
2023-05-14T13:55:23.203Z,8340.00
2023-05-14T14:00:22.847Z,8520.00
2023-05-14T14:05:23.287Z,8764.00
2023-05-14T14:10:22.738Z,6728.00
2023-05-14T14:15:22.944Z,6836.00
2023-05-14T14:20:22.622Z,6508.00
2023-05-14T14:25:22.911Z,6788.00
2023-05-14T14:30:22.529Z,6864.00
2023-05-14T14:35:22.846Z,6636.00
2023-05-14T14:40:22.400Z,6936.00
2023-05-14T14:45:22.572Z,8052.00
2023-05-14T14:50:22.329Z,7752.00
2023-05-14T14:55:22.498Z,7424.00
2023-05-14T15:00:22.549Z,7796.00
2023-05-14T15:05:22.245Z,7652.00
2023-05-14T15:10:22.108Z,7660.00
2023-05-14T15:15:22.305Z,8028.00
2023-05-14T15:20:21.986Z,8196.00
2023-05-14T15:25:22.180Z,6504.00
2023-05-14T15:30:21.874Z,6360.00
2023-05-14T15:35:22.016Z,6200.00
2023-05-14T15:40:21.846Z,5916.00
2023-05-14T15:45:21.775Z,5624.00
2023-05-14T15:50:21.702Z,5460.00
2023-05-14T15:55:21.652Z,5352.00
2023-05-14T16:00:21.810Z,5312.00
2023-05-14T16:05:21.499Z,5392.00
2023-05-14T16:10:21.708Z,5140.00
2023-05-14T16:15:21.390Z,4888.00
2023-05-14T16:20:21.377Z,4872.00
2023-05-14T16:25:21.262Z,4844.00
2023-05-14T16:30:21.236Z,4912.00
2023-05-14T16:35:21.167Z,4848.00
2023-05-14T16:40:21.188Z,4744.00
2023-05-14T16:45:21.048Z,4660.00
2023-05-14T16:50:20.999Z,4272.00
2023-05-14T16:55:20.954Z,3940.00
2023-05-14T17:00:20.894Z,3660.00
2023-05-14T17:05:20.853Z,3348.00
2023-05-14T17:10:20.775Z,3080.00
2023-05-14T17:15:20.736Z,2948.00
2023-05-14T17:20:20.673Z,2756.00
2023-05-14T17:25:20.604Z,2608.00
2023-05-14T17:30:20.567Z,2428.00
2023-05-14T17:35:20.525Z,2300.00
2023-05-14T17:40:20.446Z,2236.00
2023-05-14T17:45:20.419Z,2064.00
2023-05-14T17:50:20.347Z,1740.00
2023-05-14T17:55:20.313Z,1508.00
2023-05-14T18:00:20.261Z,1472.00
2023-05-14T18:05:20.879Z,1376.00
2023-05-14T18:10:20.176Z,1208.00
2023-05-14T18:15:20.133Z,1072.00
2023-05-14T18:20:20.070Z,960.00
2023-05-14T18:25:19.971Z,828.00
2023-05-14T18:30:19.926Z,692.00
2023-05-14T18:35:19.923Z,576.00
2023-05-14T18:40:19.850Z,480.00
2023-05-14T18:45:19.748Z,380.00
2023-05-14T18:50:19.698Z,276.00
2023-05-14T18:55:19.681Z,196.00
2023-05-14T19:00:19.595Z,152.00
2023-05-14T19:05:19.549Z,108.00
2023-05-14T19:10:19.504Z,72.00
2023-05-14T19:15:19.471Z,52.00
2023-05-14T19:20:19.410Z,32.00
2023-05-14T19:25:19.324Z,16.00
2023-05-14T19:30:19.273Z,12.00
2023-05-14T19:35:19.270Z,4.00
2023-05-14T19:40:19.188Z,0.00
2023-05-14T19:45:19.112Z,0.00
2023-05-14T19:50:19.075Z,0.00
2023-05-14T19:55:19.028Z,0.00
2023-05-14T20:00:18.937Z,0.00
2023-05-14T20:05:18.892Z,0.00
2023-05-14T20:10:18.845Z,0.00
2023-05-14T20:15:18.822Z,0.00
2023-05-14T20:20:18.939Z,0.00
2023-05-14T20:25:18.669Z,0.00
2023-05-14T20:30:18.633Z,0.00
2023-05-14T20:35:18.582Z,0.00
2023-05-14T20:40:18.617Z,0.00
2023-05-14T20:45:18.463Z,0.00
2023-05-14T20:50:18.411Z,0.00
2023-05-14T20:55:18.398Z,0.00
2023-05-14T21:00:18.326Z,0.00
2023-05-14T21:05:18.263Z,0.00
2023-05-14T21:10:18.456Z,0.00
2023-05-14T21:15:18.143Z,0.00
2023-05-14T21:20:18.102Z,0.00
2023-05-14T21:25:18.035Z,0.00
2023-05-14T21:30:17.989Z,0.00
2023-05-14T21:35:17.976Z,0.00
2023-05-14T21:40:17.879Z,0.00
2023-05-14T21:45:17.805Z,0.00
2023-05-14T21:50:17.781Z,0.00
2023-05-14T21:55:17.693Z,0.00
2023-05-14T22:00:17.653Z,0.00
2023-05-14T22:05:17.620Z,0.00
2023-05-14T22:10:17.573Z,0.00
2023-05-14T22:15:17.487Z,0.00
2023-05-14T22:20:17.412Z,0.00
2023-05-14T22:25:17.622Z,0.00
2023-05-14T22:30:17.289Z,0.00
2023-05-14T22:35:17.268Z,0.00
2023-05-14T22:40:17.235Z,0.00
2023-05-14T22:45:17.138Z,0.00
2023-05-14T22:50:17.088Z,0.00
2023-05-14T22:55:17.052Z,0.00
2023-05-14T23:00:17.005Z,0.00
2023-05-14T23:05:16.909Z,0.00
2023-05-14T23:10:16.873Z,0.00
2023-05-14T23:15:16.827Z,0.00
2023-05-14T23:20:16.786Z,0.00
2023-05-14T23:25:16.692Z,0.00
